createdAt,value
2022-12-09T00:00:04.251Z,84.77
2022-12-09T00:01:04.100Z,85.05
2022-12-09T00:02:04.141Z,85.05
2022-12-09T00:03:04.287Z,84.49
2022-12-09T00:04:04.138Z,84.96
2022-12-09T00:05:04.168Z,84.86
2022-12-09T00:06:04.095Z,84.49
2022-12-09T00:07:04.058Z,84.58
2022-12-09T00:08:04.069Z,84.20
2022-12-09T00:09:04.144Z,84.30
2022-12-09T00:10:04.236Z,84.39
2022-12-09T00:11:04.027Z,84.30
2022-12-09T00:12:04.029Z,84.39
2022-12-09T00:13:04.039Z,84.30
2022-12-09T00:14:04.174Z,84.30
2022-12-09T00:15:04.055Z,84.20
2022-12-09T00:16:04.143Z,84.49
2022-12-09T00:17:04.166Z,84.49
2022-12-09T00:18:04.320Z,84.20
2022-12-09T00:19:04.075Z,84.39
2022-12-09T00:20:04.341Z,84.49
2022-12-09T00:21:04.093Z,84.11
2022-12-09T00:22:04.105Z,84.20
2022-12-09T00:23:04.110Z,84.20
2022-12-09T00:24:04.415Z,84.39
2022-12-09T00:25:04.356Z,84.39
2022-12-09T00:26:04.198Z,84.39
2022-12-09T00:27:04.281Z,84.26
2022-12-09T00:28:04.142Z,84.45
2022-12-09T00:29:04.188Z,84.26
2022-12-09T00:30:04.610Z,84.20
2022-12-09T00:31:04.292Z,84.54
2022-12-09T00:32:04.277Z,84.16
2022-12-09T00:33:04.326Z,84.73
2022-12-09T00:34:04.472Z,85.01
2022-12-09T00:35:04.333Z,84.82
2022-12-09T00:36:04.189Z,85.01
2022-12-09T00:37:04.198Z,84.82
2022-12-09T00:38:04.372Z,84.73
2022-12-09T00:39:04.199Z,84.73
2022-12-09T00:40:04.375Z,85.20
2022-12-09T00:41:04.469Z,85.20
2022-12-09T00:42:04.469Z,85.58
2022-12-09T00:43:04.222Z,85.39
2022-12-09T00:44:04.274Z,85.39
2022-12-09T00:45:04.235Z,85.77
2022-12-09T00:46:04.287Z,85.77
2022-12-09T00:47:04.388Z,85.86
2022-12-09T00:48:04.354Z,86.15
2022-12-09T00:49:04.525Z,85.96
2022-12-09T00:50:04.838Z,86.33
2022-12-09T00:51:04.271Z,86.43
2022-12-09T00:52:04.280Z,86.99
2022-12-09T00:53:04.370Z,86.71
2022-12-09T00:54:04.419Z,86.99
2022-12-09T00:55:04.383Z,87.28
2022-12-09T00:56:04.306Z,87.47
2022-12-09T00:57:04.497Z,87.75
2022-12-09T00:58:04.318Z,88.51
2022-12-09T00:59:04.494Z,88.23
2022-12-09T01:00:04.884Z,88.70
2022-12-09T01:01:04.712Z,88.60
2022-12-09T01:02:04.398Z,89.17
2022-12-09T01:03:04.520Z,88.79
2022-12-09T01:04:04.532Z,89.36
2022-12-09T01:05:04.722Z,89.92
2022-12-09T01:06:04.417Z,89.92
2022-12-09T01:07:04.367Z,90.30
2022-12-09T01:08:04.418Z,90.40
2022-12-09T01:09:04.621Z,90.96
2022-12-09T01:10:04.748Z,90.87
2022-12-09T01:11:04.427Z,91.25
2022-12-09T01:12:04.620Z,91.44
2022-12-09T01:13:04.486Z,92.38
2022-12-09T01:14:04.694Z,91.82
2022-12-09T01:15:04.633Z,92.10
2022-12-09T01:16:04.737Z,92.29
2022-12-09T01:17:04.643Z,92.85
2022-12-09T01:18:04.578Z,93.13
2022-12-09T01:19:04.463Z,93.80
2022-12-09T01:20:04.911Z,93.23
2022-12-09T01:21:04.449Z,94.27
2022-12-09T01:22:04.637Z,94.37
2022-12-09T01:23:04.531Z,94.74
2022-12-09T01:24:04.743Z,94.74
2022-12-09T01:25:04.653Z,94.74
2022-12-09T01:26:04.510Z,95.59
2022-12-09T01:27:04.509Z,95.31
2022-12-09T01:28:04.531Z,95.50
2022-12-09T01:29:04.843Z,95.87
2022-12-09T01:30:05.231Z,96.06
2022-12-09T01:31:04.669Z,96.25
2022-12-09T01:32:04.890Z,96.82
2022-12-09T01:33:04.628Z,96.54
2022-12-09T01:34:04.550Z,96.91
2022-12-09T01:35:04.538Z,97.39
2022-12-09T01:36:04.858Z,97.20
2022-12-09T01:37:04.543Z,97.39
2022-12-09T01:38:04.548Z,97.58
2022-12-09T01:39:04.865Z,97.96
2022-12-09T01:40:05.090Z,98.24
2022-12-09T01:41:04.769Z,98.24
2022-12-09T01:42:04.729Z,98.24
2022-12-09T01:43:04.677Z,98.43
2022-12-09T01:44:04.583Z,98.61
2022-12-09T01:45:04.592Z,98.71
2022-12-09T01:46:04.933Z,98.80
2022-12-09T01:47:04.648Z,99.18
2022-12-09T01:48:04.766Z,98.90
2022-12-09T01:49:04.611Z,99.08
2022-12-09T01:50:04.895Z,99.46
2022-12-09T01:51:04.653Z,99.37
2022-12-09T01:52:04.693Z,99.65
2022-12-09T01:53:04.633Z,99.46
2022-12-09T01:54:05.005Z,99.46
2022-12-09T01:55:04.646Z,99.65
2022-12-09T01:56:04.888Z,99.65
2022-12-09T01:57:04.798Z,99.99
2022-12-09T01:58:04.959Z,99.99
2022-12-09T01:59:04.672Z,99.94
2022-12-09T02:00:05.048Z,99.99
2022-12-09T02:01:04.730Z,99.99
2022-12-09T02:02:05.082Z,99.99
2022-12-09T02:03:04.865Z,99.99
2022-12-09T02:04:04.918Z,99.99
2022-12-09T02:05:05.167Z,99.99
2022-12-09T02:06:05.051Z,99.99
2022-12-09T02:07:04.715Z,99.99
2022-12-09T02:08:04.920Z,99.99
2022-12-09T02:09:05.059Z,99.99
2022-12-09T02:10:05.154Z,99.99
2022-12-09T02:11:04.971Z,99.99
2022-12-09T02:12:04.744Z,99.99
2022-12-09T02:13:05.117Z,99.99
2022-12-09T02:14:04.753Z,99.94
2022-12-09T02:15:04.758Z,99.94
2022-12-09T02:16:05.144Z,99.99
2022-12-09T02:17:04.973Z,99.99
2022-12-09T02:18:04.778Z,99.94
2022-12-09T02:19:04.783Z,99.99
2022-12-09T02:20:05.570Z,99.84
2022-12-09T02:21:05.122Z,99.65
2022-12-09T02:22:04.807Z,99.46
2022-12-09T02:23:05.042Z,99.46
2022-12-09T02:24:04.837Z,99.75
2022-12-09T02:25:05.196Z,99.56
2022-12-09T02:26:05.236Z,99.75
2022-12-09T02:27:05.003Z,99.27
2022-12-09T02:28:04.837Z,99.37
2022-12-09T02:29:05.029Z,99.37
2022-12-09T02:30:05.216Z,99.37
2022-12-09T02:31:05.207Z,99.46
2022-12-09T02:32:05.321Z,99.65
2022-12-09T02:33:05.079Z,99.18
2022-12-09T02:34:04.929Z,99.18
2022-12-09T02:35:04.917Z,99.65
2022-12-09T02:36:05.047Z,99.46
2022-12-09T02:37:04.941Z,99.37
2022-12-09T02:38:04.969Z,99.08
2022-12-09T02:39:04.985Z,99.27
2022-12-09T02:40:05.389Z,99.08
2022-12-09T02:41:04.915Z,98.99
2022-12-09T02:42:04.951Z,98.99
2022-12-09T02:43:05.275Z,99.08
2022-12-09T02:44:04.941Z,99.08
2022-12-09T02:45:05.092Z,98.71
2022-12-09T02:46:04.948Z,98.61
2022-12-09T02:47:05.024Z,98.99
2022-12-09T02:48:05.332Z,98.99
2022-12-09T02:49:05.009Z,98.52
2022-12-09T02:50:05.783Z,98.52
2022-12-09T02:51:04.982Z,98.52
2022-12-09T02:52:04.993Z,98.14
2022-12-09T02:53:05.236Z,98.24
2022-12-09T02:54:05.349Z,98.24
2022-12-09T02:55:05.013Z,98.14
2022-12-09T02:56:05.010Z,98.43
2022-12-09T02:57:05.096Z,98.24
2022-12-09T02:58:05.322Z,97.96
2022-12-09T02:59:05.038Z,98.24
2022-12-09T03:00:05.400Z,98.43
2022-12-09T03:01:05.206Z,98.43
2022-12-09T03:02:05.485Z,98.33
2022-12-09T03:03:05.462Z,98.33
2022-12-09T03:04:05.191Z,98.52
2022-12-09T03:05:05.074Z,98.52
2022-12-09T03:06:05.369Z,98.43
2022-12-09T03:07:05.351Z,98.33
2022-12-09T03:08:05.434Z,98.33
2022-12-09T03:09:05.437Z,98.14
2022-12-09T03:10:05.437Z,98.24
2022-12-09T03:11:05.144Z,98.24
2022-12-09T03:12:05.132Z,98.24
2022-12-09T03:13:05.124Z,98.28
2022-12-09T03:14:05.131Z,98.24
2022-12-09T03:15:05.175Z,98.14
2022-12-09T03:16:05.274Z,98.52
2022-12-09T03:17:05.467Z,97.96
2022-12-09T03:18:05.269Z,98.33
2022-12-09T03:19:05.317Z,98.05
2022-12-09T03:20:05.759Z,98.05
2022-12-09T03:21:05.444Z,98.24
2022-12-09T03:22:05.333Z,98.47
2022-12-09T03:23:05.185Z,98.43
2022-12-09T03:24:05.212Z,98.24
2022-12-09T03:25:05.547Z,98.28
2022-12-09T03:26:05.264Z,98.33
2022-12-09T03:27:05.588Z,98.10
2022-12-09T03:28:05.342Z,98.43
2022-12-09T03:29:05.351Z,98.33
2022-12-09T03:30:05.924Z,98.14
2022-12-09T03:31:05.543Z,98.43
2022-12-09T03:32:05.344Z,98.33
2022-12-09T03:33:05.370Z,98.61
2022-12-09T03:34:05.289Z,98.52
2022-12-09T03:35:05.414Z,98.80
2022-12-09T03:36:05.641Z,98.80
2022-12-09T03:37:05.331Z,98.52
2022-12-09T03:38:05.432Z,98.99
2022-12-09T03:39:05.318Z,98.71
2022-12-09T03:40:09.840Z,98.71
2022-12-09T03:41:05.357Z,99.18
2022-12-09T03:42:05.346Z,98.99
2022-12-09T03:43:05.314Z,99.08
2022-12-09T03:44:05.367Z,98.99
2022-12-09T03:45:05.525Z,98.90
2022-12-09T03:46:05.573Z,98.99
2022-12-09T03:47:05.454Z,98.71
2022-12-09T03:48:05.677Z,99.18
2022-12-09T03:49:05.376Z,98.90
2022-12-09T03:50:05.711Z,99.37
2022-12-09T03:51:05.669Z,98.90
2022-12-09T03:52:05.383Z,99.37
2022-12-09T03:53:05.382Z,99.18
2022-12-09T03:54:05.445Z,99.46
2022-12-09T03:55:05.716Z,99.27
2022-12-09T03:56:05.670Z,99.27
2022-12-09T03:57:05.806Z,99.18
2022-12-09T03:58:05.408Z,99.65
2022-12-09T03:59:05.476Z,99.65
2022-12-09T04:00:05.891Z,99.56
2022-12-09T04:01:05.824Z,99.56
2022-12-09T04:02:05.674Z,99.65
2022-12-09T04:03:05.694Z,99.75
2022-12-09T04:04:06.021Z,99.18
2022-12-09T04:05:05.800Z,99.27
2022-12-09T04:06:05.511Z,99.46
2022-12-09T04:07:05.889Z,99.46
2022-12-09T04:08:05.648Z,99.56
2022-12-09T04:09:05.972Z,99.27
2022-12-09T04:10:05.936Z,99.46
2022-12-09T04:11:05.601Z,99.65
2022-12-09T04:12:05.563Z,99.56
2022-12-09T04:13:05.746Z,99.56
2022-12-09T04:14:07.186Z,99.75
2022-12-09T04:15:05.924Z,99.75
2022-12-09T04:16:05.562Z,99.75
2022-12-09T04:17:05.657Z,99.56
2022-12-09T04:18:05.673Z,99.56
2022-12-09T04:19:05.651Z,99.75
2022-12-09T04:20:06.091Z,99.84
2022-12-09T04:21:05.560Z,99.65
2022-12-09T04:22:05.659Z,99.65
2022-12-09T04:23:05.997Z,99.94
2022-12-09T04:24:05.672Z,99.65
2022-12-09T04:25:05.843Z,99.65
2022-12-09T04:26:05.968Z,99.56
2022-12-09T04:27:05.725Z,99.65
2022-12-09T04:28:05.663Z,99.75
2022-12-09T04:29:05.650Z,99.84
2022-12-09T04:30:06.047Z,99.84
2022-12-09T04:31:06.006Z,99.75
2022-12-09T04:32:06.065Z,99.56
2022-12-09T04:33:05.802Z,99.46
2022-12-09T04:34:09.595Z,99.46
2022-12-09T04:35:05.712Z,99.18
2022-12-09T04:36:05.678Z,99.56
2022-12-09T04:37:05.778Z,99.46
2022-12-09T04:38:05.759Z,99.56
2022-12-09T04:39:06.082Z,99.56
2022-12-09T04:40:06.162Z,99.71
2022-12-09T04:41:05.738Z,99.56
2022-12-09T04:42:05.726Z,99.46
2022-12-09T04:43:05.698Z,99.14
2022-12-09T04:44:05.917Z,99.52
2022-12-09T04:45:05.739Z,99.52
2022-12-09T04:46:05.914Z,98.85
2022-12-09T04:47:05.926Z,99.33
2022-12-09T04:48:06.073Z,98.95
2022-12-09T04:49:05.735Z,99.04
2022-12-09T04:50:06.391Z,99.23
2022-12-09T04:51:05.877Z,98.76
2022-12-09T04:52:06.095Z,99.04
2022-12-09T04:53:05.835Z,99.23
2022-12-09T04:54:05.784Z,99.04
2022-12-09T04:55:06.135Z,99.33
2022-12-09T04:56:06.189Z,98.85
2022-12-09T04:57:05.907Z,98.66
2022-12-09T04:58:05.851Z,99.04
2022-12-09T04:59:06.300Z,98.85
2022-12-09T05:00:06.160Z,98.57
2022-12-09T05:01:06.037Z,98.66
2022-12-09T05:02:05.933Z,98.57
2022-12-09T05:03:05.960Z,98.66
2022-12-09T05:04:06.348Z,98.10
2022-12-09T05:05:06.117Z,98.28
2022-12-09T05:06:06.382Z,98.28
2022-12-09T05:07:06.243Z,98.19
2022-12-09T05:08:06.055Z,98.19
2022-12-09T05:09:05.950Z,98.47
2022-12-09T05:10:06.372Z,98.28
2022-12-09T05:11:06.266Z,98.47
2022-12-09T05:12:05.920Z,98.28
2022-12-09T05:13:06.056Z,98.38
2022-12-09T05:14:06.106Z,98.47
2022-12-09T05:15:06.381Z,98.38
2022-12-09T05:16:10.610Z,98.19
2022-12-09T05:17:05.999Z,98.38
2022-12-09T05:18:06.013Z,98.47
2022-12-09T05:19:06.313Z,98.66
2022-12-09T05:20:06.882Z,98.85
2022-12-09T05:21:05.982Z,99.04
2022-12-09T05:22:06.416Z,98.95
2022-12-09T05:23:09.325Z,98.85
2022-12-09T05:24:06.294Z,98.85
2022-12-09T05:25:06.252Z,98.47
2022-12-09T05:26:06.418Z,99.33
2022-12-09T05:27:06.107Z,99.33
2022-12-09T05:28:06.347Z,99.23
2022-12-09T05:29:06.426Z,99.04
2022-12-09T05:30:06.597Z,98.85
2022-12-09T05:31:06.422Z,98.76
2022-12-09T05:32:06.385Z,99.04
2022-12-09T05:33:06.208Z,98.95
2022-12-09T05:34:06.329Z,98.95
2022-12-09T05:35:06.383Z,98.95
2022-12-09T05:36:06.149Z,98.76
2022-12-09T05:37:06.076Z,99.33
2022-12-09T05:38:06.199Z,99.14
2022-12-09T05:39:06.191Z,99.23
2022-12-09T05:40:06.443Z,99.14
2022-12-09T05:41:06.119Z,99.23
2022-12-09T05:42:06.091Z,99.14
2022-12-09T05:43:06.188Z,98.95
2022-12-09T05:44:06.454Z,99.04
2022-12-09T05:45:06.509Z,98.95
2022-12-09T05:46:06.627Z,98.95
2022-12-09T05:47:06.244Z,98.95
2022-12-09T05:48:06.281Z,99.14
2022-12-09T05:49:06.551Z,98.95
2022-12-09T05:50:08.178Z,99.14
2022-12-09T05:51:06.552Z,98.85
2022-12-09T05:52:06.280Z,99.14
2022-12-09T05:53:06.246Z,99.23
2022-12-09T05:54:06.439Z,99.14
2022-12-09T05:55:06.328Z,98.85
2022-12-09T05:56:06.619Z,99.23
2022-12-09T05:57:06.615Z,98.95
2022-12-09T05:58:06.370Z,98.95
2022-12-09T05:59:06.233Z,98.95
2022-12-09T06:00:06.785Z,98.95
2022-12-09T06:01:06.347Z,99.14
2022-12-09T06:02:10.016Z,99.14
2022-12-09T06:03:06.439Z,99.14
2022-12-09T06:04:06.609Z,99.14
2022-12-09T06:05:06.779Z,99.23
2022-12-09T06:06:06.596Z,99.04
2022-12-09T06:07:06.573Z,98.66
2022-12-09T06:08:07.430Z,98.57
2022-12-09T06:09:06.576Z,98.66
2022-12-09T06:10:06.912Z,98.76
2022-12-09T06:11:06.532Z,98.85
2022-12-09T06:12:06.637Z,98.76
2022-12-09T06:13:06.671Z,98.57
2022-12-09T06:14:06.600Z,98.66
2022-12-09T06:15:09.654Z,98.57
2022-12-09T06:16:06.839Z,98.66
2022-12-09T06:17:06.815Z,98.66
2022-12-09T06:18:06.499Z,98.19
2022-12-09T06:19:06.716Z,98.19
2022-12-09T06:20:07.153Z,98.38
2022-12-09T06:21:06.420Z,98.28
2022-12-09T06:22:06.640Z,98.19
2022-12-09T06:23:06.630Z,98.38
2022-12-09T06:24:06.363Z,98.47
2022-12-09T06:25:06.379Z,98.28
2022-12-09T06:26:06.460Z,98.47
2022-12-09T06:27:06.451Z,98.38
2022-12-09T06:28:06.851Z,98.28
2022-12-09T06:29:06.527Z,98.38
2022-12-09T06:30:06.532Z,98.28
2022-12-09T06:31:06.567Z,98.28
2022-12-09T06:32:06.521Z,98.00
2022-12-09T06:33:22.909Z,98.38
2022-12-09T06:34:06.824Z,98.47
2022-12-09T06:35:07.063Z,98.47
2022-12-09T06:36:06.571Z,98.38
2022-12-09T06:37:06.476Z,98.38
2022-12-09T06:38:06.500Z,98.00
2022-12-09T06:39:10.644Z,97.91
2022-12-09T06:40:06.650Z,98.00
2022-12-09T06:41:06.568Z,98.28
2022-12-09T06:42:06.813Z,97.91
2022-12-09T06:43:06.841Z,97.81
2022-12-09T06:44:06.812Z,97.81
2022-12-09T06:45:07.045Z,97.81
2022-12-09T06:46:06.603Z,98.47
2022-12-09T06:47:06.840Z,98.57
2022-12-09T06:48:06.990Z,98.28
2022-12-09T06:49:06.677Z,97.81
2022-12-09T06:50:07.937Z,98.00
2022-12-09T06:51:06.877Z,98.47
2022-12-09T06:52:06.898Z,98.19
2022-12-09T06:53:06.697Z,97.81
2022-12-09T06:54:06.995Z,98.10
2022-12-09T06:55:07.196Z,98.00
2022-12-09T06:56:11.421Z,98.10
2022-12-09T06:57:06.781Z,97.91
2022-12-09T06:58:06.591Z,98.10
2022-12-09T06:59:06.659Z,97.63
2022-12-09T07:00:06.697Z,98.00
2022-12-09T07:01:07.083Z,98.00
2022-12-09T07:02:06.804Z,98.00
2022-12-09T07:03:06.822Z,98.19
2022-12-09T07:04:07.230Z,98.28
2022-12-09T07:05:07.083Z,98.19
2022-12-09T07:06:07.001Z,97.91
2022-12-09T07:07:06.724Z,97.34
2022-12-09T07:08:06.903Z,97.53
2022-12-09T07:09:07.145Z,97.63
2022-12-09T07:10:07.060Z,97.63
2022-12-09T07:11:06.779Z,97.63
2022-12-09T07:12:06.767Z,97.63
2022-12-09T07:13:06.733Z,97.63
2022-12-09T07:14:06.783Z,97.81
2022-12-09T07:15:07.402Z,97.72
2022-12-09T07:16:07.062Z,97.63
2022-12-09T07:17:06.967Z,97.91
2022-12-09T07:18:06.908Z,97.81
2022-12-09T07:19:07.006Z,97.81
2022-12-09T07:20:07.488Z,97.81
2022-12-09T07:21:06.827Z,97.63
2022-12-09T07:22:06.875Z,97.63
2022-12-09T07:23:07.039Z,97.63
2022-12-09T07:24:07.098Z,97.53
2022-12-09T07:25:07.411Z,97.44
2022-12-09T07:26:06.879Z,97.44
2022-12-09T07:27:10.787Z,97.53
2022-12-09T07:28:06.844Z,97.44
2022-12-09T07:29:07.226Z,97.53
2022-12-09T07:30:07.032Z,97.44
2022-12-09T07:31:07.135Z,97.63
2022-12-09T07:32:07.048Z,97.53
2022-12-09T07:33:07.084Z,97.53
2022-12-09T07:34:07.080Z,97.63
2022-12-09T07:35:07.510Z,97.25
2022-12-09T07:36:07.171Z,97.34
2022-12-09T07:37:07.143Z,97.63
2022-12-09T07:38:06.944Z,97.63
2022-12-09T07:39:06.971Z,97.44
2022-12-09T07:40:07.310Z,97.44
2022-12-09T07:41:06.971Z,97.44
2022-12-09T07:42:07.139Z,97.25
2022-12-09T07:43:06.938Z,97.53
2022-12-09T07:44:06.963Z,97.44
2022-12-09T07:45:07.638Z,97.34
2022-12-09T07:46:07.161Z,97.25
2022-12-09T07:47:07.099Z,96.87
2022-12-09T07:48:07.128Z,97.06
2022-12-09T07:49:07.342Z,97.15
2022-12-09T07:50:07.579Z,97.15
2022-12-09T07:51:07.383Z,97.25
2022-12-09T07:52:07.074Z,96.78
2022-12-09T07:53:06.957Z,96.96
2022-12-09T07:54:06.968Z,96.96
2022-12-09T07:55:07.649Z,96.96
2022-12-09T07:56:07.319Z,96.87
2022-12-09T07:57:07.373Z,96.87
2022-12-09T07:58:07.197Z,96.96
2022-12-09T07:59:07.156Z,96.96
2022-12-09T08:00:07.000Z,96.87
2022-12-09T08:01:07.115Z,96.40
2022-12-09T08:02:07.101Z,96.49
2022-12-09T08:03:07.397Z,96.49
2022-12-09T08:04:07.221Z,96.30
2022-12-09T08:05:07.656Z,96.21
2022-12-09T08:06:07.532Z,96.11
2022-12-09T08:07:07.373Z,96.21
2022-12-09T08:08:07.521Z,95.83
2022-12-09T08:09:07.412Z,96.21
2022-12-09T08:10:07.608Z,96.21
2022-12-09T08:11:07.529Z,95.73
2022-12-09T08:12:07.631Z,96.30
2022-12-09T08:13:07.360Z,96.02
2022-12-09T08:14:11.438Z,96.30
2022-12-09T08:15:07.813Z,96.21
2022-12-09T08:16:07.344Z,96.07
2022-12-09T08:17:07.304Z,96.11
2022-12-09T08:18:07.225Z,95.64
2022-12-09T08:19:07.280Z,95.73
2022-12-09T08:20:07.540Z,95.88
2022-12-09T08:21:07.529Z,95.40
2022-12-09T08:22:07.529Z,95.40
2022-12-09T08:23:07.580Z,95.40
2022-12-09T08:24:07.569Z,95.26
2022-12-09T08:25:08.062Z,95.59
2022-12-09T08:26:07.516Z,95.59
2022-12-09T08:27:07.578Z,95.59
2022-12-09T08:28:07.301Z,95.50
2022-12-09T08:29:07.375Z,95.21
2022-12-09T08:30:07.483Z,95.40
2022-12-09T08:31:07.490Z,95.78
2022-12-09T08:32:07.594Z,95.59
2022-12-09T08:33:07.334Z,95.40
2022-12-09T08:34:07.435Z,95.59
2022-12-09T08:35:07.379Z,95.50
2022-12-09T08:36:07.687Z,95.88
2022-12-09T08:37:07.411Z,95.78
2022-12-09T08:38:07.348Z,95.78
2022-12-09T08:39:07.771Z,95.97
2022-12-09T08:40:07.831Z,95.69
2022-12-09T08:41:07.414Z,96.26
2022-12-09T08:42:07.430Z,96.26
2022-12-09T08:43:07.652Z,95.97
2022-12-09T08:44:07.454Z,95.88
2022-12-09T08:45:07.387Z,96.26
2022-12-09T08:46:07.875Z,96.35
2022-12-09T08:47:07.497Z,96.26
2022-12-09T08:48:07.760Z,96.07
2022-12-09T08:49:07.593Z,96.16
2022-12-09T08:50:07.706Z,96.16
2022-12-09T08:51:07.378Z,96.16
2022-12-09T08:52:07.388Z,96.35
2022-12-09T08:53:07.421Z,95.97
2022-12-09T08:54:07.711Z,96.16
2022-12-09T08:55:07.796Z,96.54
2022-12-09T08:56:07.602Z,96.26
2022-12-09T08:57:07.715Z,96.54
2022-12-09T08:58:07.827Z,96.26
2022-12-09T08:59:07.601Z,96.35
2022-12-09T09:00:08.143Z,96.35
2022-12-09T09:01:07.542Z,96.54
2022-12-09T09:02:07.694Z,96.45
2022-12-09T09:03:07.713Z,97.11
2022-12-09T09:04:08.032Z,96.92
2022-12-09T09:05:07.789Z,96.92
2022-12-09T09:06:10.521Z,97.01
2022-12-09T09:07:08.075Z,96.92
2022-12-09T09:08:07.615Z,96.92
2022-12-09T09:09:07.852Z,97.11
2022-12-09T09:10:08.537Z,97.30
2022-12-09T09:11:07.677Z,97.30
2022-12-09T09:12:07.603Z,97.01
2022-12-09T09:13:07.635Z,97.58
2022-12-09T09:14:07.700Z,97.39
2022-12-09T09:15:07.802Z,97.39
2022-12-09T09:16:09.460Z,97.39
2022-12-09T09:17:07.687Z,97.39
2022-12-09T09:18:07.770Z,97.11
2022-12-09T09:19:07.872Z,97.20
2022-12-09T09:20:08.025Z,97.49
2022-12-09T09:21:07.676Z,97.77
2022-12-09T09:22:08.053Z,97.67
2022-12-09T09:23:07.645Z,97.96
2022-12-09T09:24:07.908Z,97.67
2022-12-09T09:25:08.233Z,97.96
2022-12-09T09:26:07.674Z,97.77
2022-12-09T09:27:07.757Z,97.77
2022-12-09T09:28:08.103Z,97.67
2022-12-09T09:29:07.866Z,97.58
2022-12-09T09:30:08.093Z,97.49
2022-12-09T09:31:08.325Z,97.86
2022-12-09T09:32:08.134Z,98.05
2022-12-09T09:33:07.871Z,98.14
2022-12-09T09:34:08.266Z,98.14
2022-12-09T09:35:07.951Z,98.14
2022-12-09T09:36:10.416Z,98.24
2022-12-09T09:37:08.173Z,97.96
2022-12-09T09:38:08.154Z,98.52
2022-12-09T09:39:07.860Z,98.52
2022-12-09T09:40:07.971Z,98.05
2022-12-09T09:41:08.257Z,98.43
2022-12-09T09:42:08.945Z,98.05
2022-12-09T09:43:08.273Z,98.43
2022-12-09T09:44:07.825Z,98.24
2022-12-09T09:45:08.123Z,98.33
2022-12-09T09:46:07.864Z,98.81
2022-12-09T09:47:07.900Z,98.81
2022-12-09T09:48:08.097Z,99.00
2022-12-09T09:49:08.440Z,98.81
2022-12-09T09:50:08.271Z,98.71
2022-12-09T09:51:07.936Z,98.52
2022-12-09T09:52:07.930Z,99.38
2022-12-09T09:53:07.881Z,99.28
2022-12-09T09:54:09.308Z,99.19
2022-12-09T09:55:08.288Z,99.09
2022-12-09T09:56:08.326Z,99.19
2022-12-09T09:57:07.934Z,99.38
2022-12-09T09:58:07.959Z,99.09
2022-12-09T09:59:08.117Z,99.57
2022-12-09T10:00:10.146Z,99.38
2022-12-09T10:01:08.496Z,99.28
2022-12-09T10:02:08.209Z,99.85
2022-12-09T10:03:08.141Z,99.66
2022-12-09T10:04:08.545Z,99.47
2022-12-09T10:05:08.138Z,99.85
2022-12-09T10:06:08.586Z,99.85
2022-12-09T10:07:08.690Z,99.85
2022-12-09T10:08:08.461Z,99.76
2022-12-09T10:09:08.480Z,99.57
2022-12-09T10:10:08.827Z,99.99
2022-12-09T10:11:08.104Z,99.99
2022-12-09T10:12:08.526Z,99.99
2022-12-09T10:13:14.287Z,99.99
2022-12-09T10:14:08.235Z,99.99
2022-12-09T10:15:08.158Z,99.99
2022-12-09T10:16:08.286Z,99.99
2022-12-09T10:17:08.539Z,99.99
2022-12-09T10:18:08.126Z,99.99
2022-12-09T10:19:09.526Z,99.99
2022-12-09T10:20:08.777Z,99.99
2022-12-09T10:21:08.284Z,99.99
2022-12-09T10:22:08.269Z,99.99
2022-12-09T10:23:08.707Z,99.99
2022-12-09T10:24:08.609Z,99.99
2022-12-09T10:25:08.312Z,99.99
2022-12-09T10:26:08.660Z,99.99
2022-12-09T10:27:08.315Z,99.99
2022-12-09T10:28:08.175Z,99.99
2022-12-09T10:29:08.300Z,99.99
2022-12-09T10:30:08.787Z,99.99
2022-12-09T10:31:08.654Z,99.99
2022-12-09T10:32:08.328Z,99.99
2022-12-09T10:33:08.270Z,99.99
2022-12-09T10:34:08.343Z,99.99
2022-12-09T10:35:08.758Z,99.99
2022-12-09T10:36:08.459Z,99.99
2022-12-09T10:37:08.418Z,99.99
2022-12-09T10:38:08.351Z,99.99
2022-12-09T10:39:08.564Z,99.99
2022-12-09T10:40:08.989Z,99.99
2022-12-09T10:41:08.645Z,99.99
2022-12-09T10:42:08.349Z,99.99
2022-12-09T10:43:08.768Z,99.99
2022-12-09T10:44:08.448Z,99.99
2022-12-09T10:45:08.575Z,99.99
2022-12-09T10:46:17.903Z,99.99
2022-12-09T10:47:08.797Z,99.99
2022-12-09T10:48:08.596Z,99.99
2022-12-09T10:49:08.404Z,99.99
2022-12-09T10:50:08.711Z,99.99
2022-12-09T10:51:08.759Z,99.99
2022-12-09T10:52:08.537Z,99.99
2022-12-09T10:53:08.413Z,99.99
2022-12-09T10:54:08.396Z,99.99
2022-12-09T10:55:08.383Z,99.99
2022-12-09T10:56:08.568Z,99.99
2022-12-09T10:57:08.928Z,99.99
2022-12-09T10:58:08.413Z,99.99
2022-12-09T10:59:08.962Z,99.99
2022-12-09T11:00:08.957Z,99.99
2022-12-09T11:01:08.798Z,99.99
2022-12-09T11:02:08.898Z,99.99
2022-12-09T11:03:08.532Z,99.99
2022-12-09T11:04:08.935Z,99.99
2022-12-09T11:05:08.920Z,99.99
2022-12-09T11:06:08.692Z,99.99
2022-12-09T11:07:08.729Z,99.99
2022-12-09T11:08:08.946Z,99.99
2022-12-09T11:09:09.100Z,99.99
2022-12-09T11:10:09.264Z,99.99
2022-12-09T11:11:08.728Z,99.99
2022-12-09T11:12:08.711Z,99.99
2022-12-09T11:13:08.929Z,99.99
2022-12-09T11:14:08.837Z,99.99
2022-12-09T11:15:08.967Z,99.99
2022-12-09T11:16:09.075Z,99.99
2022-12-09T11:17:08.789Z,99.99
2022-12-09T11:18:08.842Z,99.99
2022-12-09T11:19:09.063Z,99.99
2022-12-09T11:20:09.643Z,99.99
2022-12-09T11:21:08.861Z,99.99
2022-12-09T11:22:08.667Z,99.99
2022-12-09T11:23:09.131Z,99.99
2022-12-09T11:24:08.798Z,99.99
2022-12-09T11:25:08.745Z,99.99
2022-12-09T11:26:09.076Z,99.99
2022-12-09T11:27:08.977Z,99.99
2022-12-09T11:28:08.723Z,99.99
2022-12-09T11:29:08.804Z,99.99
2022-12-09T11:30:13.091Z,99.99
2022-12-09T11:31:36.627Z,99.99
2022-12-09T11:32:08.797Z,99.99
2022-12-09T11:33:08.777Z,99.99
2022-12-09T11:34:09.057Z,99.99
2022-12-09T11:35:08.958Z,99.99
2022-12-09T11:37:08.748Z,99.99
2022-12-09T11:38:08.759Z,99.99
2022-12-09T11:39:08.772Z,99.99
2022-12-09T11:40:09.027Z,99.99
2022-12-09T11:41:08.784Z,99.99
2022-12-09T11:42:16.068Z,99.99
2022-12-09T11:43:08.804Z,99.99
2022-12-09T11:44:08.811Z,99.99
2022-12-09T11:45:08.816Z,99.99
2022-12-09T11:46:08.829Z,99.99
2022-12-09T11:47:08.873Z,99.99
2022-12-09T11:48:32.022Z,99.99
2022-12-09T11:49:08.853Z,99.99
2022-12-09T11:50:09.270Z,99.99
2022-12-09T11:51:08.868Z,99.99
2022-12-09T11:52:08.876Z,99.99
2022-12-09T11:53:08.882Z,99.99
2022-12-09T11:54:08.895Z,99.99
2022-12-09T11:55:08.902Z,99.99
2022-12-09T11:56:08.909Z,99.99
2022-12-09T11:57:08.923Z,99.99
2022-12-09T11:58:08.927Z,99.99
2022-12-09T11:59:08.935Z,99.99
2022-12-09T12:00:09.168Z,99.99
2022-12-09T12:01:08.951Z,99.99
2022-12-09T12:02:08.996Z,99.99
2022-12-09T12:03:09.013Z,99.99
2022-12-09T12:04:08.977Z,99.99
2022-12-09T12:05:08.988Z,99.99
2022-12-09T12:06:08.997Z,99.99
2022-12-09T12:07:09.011Z,99.99
2022-12-09T12:08:09.177Z,99.99
2022-12-09T12:09:09.051Z,99.99
2022-12-09T12:10:09.277Z,99.99
2022-12-09T12:11:14.919Z,99.99
2022-12-09T12:12:09.044Z,99.99
2022-12-09T12:13:09.052Z,99.99
2022-12-09T12:14:09.063Z,99.99
2022-12-09T12:15:09.069Z,99.99
2022-12-09T12:16:09.077Z,99.99
2022-12-09T12:17:09.142Z,99.99
2022-12-09T12:18:09.094Z,99.99
2022-12-09T12:19:09.103Z,99.99
2022-12-09T12:20:09.383Z,99.99
2022-12-09T12:21:09.120Z,99.99
2022-12-09T12:22:09.127Z,99.99
2022-12-09T12:23:09.137Z,99.99
2022-12-09T12:24:09.146Z,99.99
2022-12-09T12:25:14.017Z,99.99
2022-12-09T12:26:09.161Z,99.99
2022-12-09T12:27:09.170Z,99.99
2022-12-09T12:28:09.176Z,99.99
2022-12-09T12:29:09.185Z,99.99
2022-12-09T12:30:09.258Z,99.99
2022-12-09T12:31:09.200Z,99.99
2022-12-09T12:32:09.258Z,99.99
2022-12-09T12:34:24.073Z,99.99
2022-12-09T12:35:09.408Z,99.99
2022-12-09T12:36:09.240Z,99.99
2022-12-09T12:37:09.262Z,99.99
2022-12-09T12:38:09.256Z,99.99
2022-12-09T12:39:09.265Z,99.99
2022-12-09T12:40:09.513Z,99.99
2022-12-09T12:41:09.282Z,99.99
2022-12-09T12:42:09.289Z,99.99
2022-12-09T12:43:09.300Z,99.99
2022-12-09T12:44:09.304Z,99.99
2022-12-09T12:45:09.314Z,99.99
2022-12-09T12:46:09.379Z,99.99
2022-12-09T12:47:09.330Z,99.99
2022-12-09T12:48:09.372Z,99.99
2022-12-09T12:49:09.348Z,99.99
2022-12-09T12:50:09.651Z,99.99
2022-12-09T12:51:09.363Z,99.99
2022-12-09T12:52:16.613Z,99.99
2022-12-09T12:53:09.378Z,99.99
2022-12-09T12:54:09.386Z,99.99